Edirne, Turkey
Current Conditions -  °F | °C
As of 5:20 PM on Thursday 18 Dec 2014 (Local Time) from LGAL Reporting Station
Few Clouds Few Clouds  
Wind Chill: 59°   Ceiling: Unl
Heat Index: 59°   Visibility: 6mi
Dew Point: 48°   Wind: 5mph
Humidity: 67%   Direction: 200°SSW
Pressure: 30"   Gusts: NA
Location:  41.69°N, 26.56°E
Report Text: LGAL 181420Z 20004KT 9999 FEW020 15/09 Q1016
Loading
Personal Weather Stations






























Interactive Weather Map New forecast layout! Learn more

10-Day Weather Forecast

Advertisements
Track Severe Weather on mobile